Time;durP1;ratioP1;P1;durP2;ratioP2;P2;SDS_P1;SDS_P2;PMS_P1;PMS_P2;Temp;Humidity;BMP_temperature;BMP_pressure;BME280_temperature;BME280_humidity;BME280_pressure;Samples;Min_cycle;Max_cycle;Signal;HPM_P1;HPM_P2
2022/01/28 00:03:07;;;;;;;1.40;0.40;;;17.90;56.90;;;;;;10591779;27;20031;-58
2022/01/28 00:08:08;;;;;;;0.90;0.32;;;17.90;56.70;;;;;;10596279;27;20529;-56
2022/01/28 00:39:14;;;;;;;1.27;0.57;;;17.90;57.00;;;;;;10580247;28;20039;-56
2022/01/28 00:44:15;;;;;;;1.13;0.50;;;17.90;56.80;;;;;;10598071;28;20036;-57
2022/01/28 00:49:16;;;;;;;1.77;1.05;;;18.00;56.60;;;;;;10589024;28;20020;-57
2022/01/28 00:54:19;;;;;;;1.23;0.55;;;18.00;56.40;;;;;;10575176;28;20023;-57
2022/01/28 00:59:20;;;;;;;6.07;0.60;;;18.00;56.50;;;;;;10601524;27;20082;-57
2022/01/28 01:04:23;;;;;;;2.05;0.75;;;18.00;56.50;;;;;;10608086;27;20030;-57
2022/01/28 01:09:23;;;;;;;2.28;0.70;;;18.00;56.70;;;;;;10583427;27;20016;-54
2022/01/28 01:14:24;;;;;;;1.83;0.90;;;17.90;56.70;;;;;;10591223;27;20042;-57
2022/01/28 01:19:28;;;;;;;1.02;0.40;;;17.90;56.70;;;;;;10588295;27;20036;-57
2022/01/28 01:24:35;;;;;;;2.63;0.40;;;17.90;56.70;;;;;;10569036;27;20038;-54
2022/01/28 01:29:41;;;;;;;1.67;0.82;;;17.90;56.70;;;;;;10586769;28;20617;-57
2022/01/28 01:34:42;;;;;;;1.80;0.65;;;17.90;56.60;;;;;;10603862;27;20031;-57
2022/01/28 01:39:43;;;;;;;1.00;0.60;;;17.90;56.60;;;;;;10599303;27;20020;-58
2022/01/28 01:45:26;;;;;;;1.20;0.60;;;17.90;56.50;;;;;;10568470;27;20027;-57
2022/01/28 01:55:31;;;;;;;1.58;0.60;;;17.90;56.50;;;;;;10598264;27;20035;-57
2022/01/28 02:00:32;;;;;;;1.42;0.60;;;18.00;56.30;;;;;;10587430;27;20020;-57
2022/01/28 02:05:33;;;;;;;1.90;0.60;;;18.00;56.10;;;;;;10611767;27;20070;-57
2022/01/28 02:10:34;;;;;;;1.85;0.43;;;18.00;56.30;;;;;;10584578;28;20104;-56
2022/01/28 02:15:35;;;;;;;1.73;0.80;;;18.00;56.30;;;;;;10585141;27;20101;-57
2022/01/28 02:20:38;;;;;;;0.73;0.40;;;18.00;56.30;;;;;;10582221;28;20088;-57
2022/01/28 02:25:38;;;;;;;1.63;0.40;;;18.00;56.30;;;;;;10593564;27;20467;-57
2022/01/28 02:30:39;;;;;;;2.05;0.50;;;18.00;56.30;;;;;;10601975;27;20115;-58
2022/01/28 02:35:43;;;;;;;2.47;0.52;;;18.00;56.30;;;;;;10607666;27;20076;-57
2022/01/28 02:40:49;;;;;;;2.35;0.85;;;17.90;56.30;;;;;;10583548;27;20492;-57
2022/01/28 02:45:52;;;;;;;2.13;0.80;;;17.90;56.20;;;;;;10623542;27;20031;-57
2022/01/28 02:56:03;;;;;;;1.88;0.52;;;18.00;56.20;;;;;;10592947;27;20031;-57
2022/01/28 03:01:04;;;;;;;0.75;0.38;;;18.00;56.30;;;;;;10592887;27;20027;-58
2022/01/28 03:06:05;;;;;;;1.15;0.40;;;18.00;56.80;;;;;;10623629;27;20046;-57
2022/01/28 03:16:12;;;;;;;2.92;0.77;;;17.90;56.10;;;;;;10600938;27;20107;-57
2022/01/28 03:21:54;;;;;;;2.95;0.75;;;18.00;56.30;;;;;;10623765;27;20078;-57
2022/01/28 03:26:40;;;;;;;0.85;0.30;;;18.00;56.10;;;;;;10578655;27;20114;-56
2022/01/28 03:31:41;;;;;;;1.30;0.45;;;18.00;56.20;;;;;;10585885;27;20626;-57
2022/01/28 03:36:41;;;;;;;1.38;0.43;;;18.00;56.10;;;;;;10576633;27;20485;-57
2022/01/28 03:41:42;;;;;;;0.95;0.40;;;18.00;56.20;;;;;;10595076;27;20033;-57
2022/01/28 03:46:43;;;;;;;0.47;0.30;;;17.90;56.10;;;;;;10597954;27;20027;-57
2022/01/28 03:51:44;;;;;;;1.25;0.50;;;17.90;56.20;;;;;;10623349;27;20091;-56
2022/01/28 03:56:44;;;;;;;1.15;0.63;;;18.00;56.10;;;;;;10587989;27;20523;-57
2022/01/28 04:01:47;;;;;;;0.85;0.40;;;18.00;56.20;;;;;;10559954;27;20027;-58
2022/01/28 04:12:07;;;;;;;0.93;0.40;;;17.90;56.00;;;;;;10595493;27;20491;-57
2022/01/28 04:17:21;;;;;;;0.68;0.40;;;18.00;56.00;;;;;;10604479;27;20422;-57
2022/01/28 04:22:22;;;;;;;1.50;0.60;;;18.00;56.10;;;;;;10602339;27;20071;-57
2022/01/28 04:27:23;;;;;;;0.95;0.43;;;18.00;56.10;;;;;;10580358;28;20078;-57
2022/01/28 04:32:26;;;;;;;1.25;0.40;;;17.90;56.10;;;;;;10586256;28;20175;-56
2022/01/28 05:13:43;;;;;;;1.20;0.40;;;18.00;56.10;;;;;;10594418;28;20154;-57
2022/01/28 05:29:11;;;;;;;1.75;0.57;;;17.90;55.90;;;;;;10585348;28;20118;-57
2022/01/28 05:34:11;;;;;;;0.73;0.30;;;17.90;56.00;;;;;;10593061;28;20106;-58
2022/01/28 05:39:12;;;;;;;3.72;0.70;;;17.90;56.20;;;;;;10574208;28;20161;-57
2022/01/28 05:44:13;;;;;;;1.50;0.50;;;17.80;56.10;;;;;;10559085;27;20035;-59
2022/01/28 05:49:14;;;;;;;3.35;0.57;;;17.90;56.10;;;;;;10599353;27;20023;-59
2022/01/28 05:54:15;;;;;;;1.63;0.40;;;17.90;55.90;;;;;;10592572;27;20122;-60
2022/01/28 05:59:16;;;;;;;3.50;0.65;;;18.00;55.90;;;;;;10628234;27;20110;-58
2022/01/28 06:04:19;;;;;;;2.05;0.60;;;18.00;57.30;;;;;;10596726;27;20563;-59
2022/01/28 06:09:20;;;;;;;2.45;0.40;;;18.10;57.00;;;;;;10612510;27;20035;-55
2022/01/28 06:14:21;;;;;;;4.88;0.98;;;18.20;57.60;;;;;;10586284;27;20480;-60
2022/01/28 06:19:21;;;;;;;3.03;0.70;;;18.20;58.10;;;;;;10593572;27;20699;-57
2022/01/28 06:24:22;;;;;;;3.92;0.63;;;18.10;58.50;;;;;;10608901;27;20031;-57
2022/01/28 06:29:23;;;;;;;15.82;0.93;;;18.00;58.60;;;;;;10598304;27;20107;-52
2022/01/28 06:34:24;;;;;;;6.47;1.55;;;18.10;58.50;;;;;;10600843;27;20027;-52
2022/01/28 06:39:24;;;;;;;6.28;1.00;;;18.00;59.00;;;;;;10594715;27;20410;-52
2022/01/28 06:44:25;;;;;;;10.80;1.75;;;17.80;58.80;;;;;;10577114;27;20032;-53
2022/01/28 06:49:26;;;;;;;3.08;0.70;;;17.90;58.80;;;;;;10586272;27;20035;-54
2022/01/28 06:54:27;;;;;;;16.35;1.85;;;17.90;59.40;;;;;;10597981;27;20035;-53
2022/01/28 06:59:28;;;;;;;21.95;2.35;;;17.90;58.30;;;;;;10597100;27;20106;-51
2022/01/28 07:04:28;;;;;;;14.75;2.67;;;18.00;58.80;;;;;;10585586;27;20138;-52
2022/01/28 07:09:29;;;;;;;18.65;2.83;;;18.00;58.70;;;;;;10581557;27;20027;-52
2022/01/28 07:14:30;;;;;;;16.27;2.78;;;18.00;58.80;;;;;;10616128;27;20111;-56
2022/01/28 07:19:31;;;;;;;20.75;4.65;;;18.00;58.70;;;;;;10596124;27;20051;-53
2022/01/28 07:24:31;;;;;;;21.98;3.05;;;18.00;58.90;;;;;;10562195;28;20035;-48
2022/01/28 07:29:33;;;;;;;16.95;3.58;;;17.90;59.20;;;;;;10578773;28;20046;-49
2022/01/28 07:34:34;;;;;;;16.35;2.15;;;17.80;59.70;;;;;;10572361;27;20020;-47
2022/01/28 07:39:34;;;;;;;15.95;2.35;;;17.70;59.90;;;;;;10588139;27;20093;-49
2022/01/28 07:44:35;;;;;;;11.68;2.80;;;17.60;60.10;;;;;;10576093;27;20176;-48
2022/01/28 07:49:36;;;;;;;10.93;1.52;;;17.60;60.20;;;;;;10580227;28;20036;-49
2022/01/28 07:54:44;;;;;;;11.10;2.72;;;17.60;60.10;;;;;;10576231;27;20099;-48
2022/01/28 07:59:45;;;;;;;12.02;2.17;;;17.60;60.30;;;;;;10580120;27;20031;-51
2022/01/28 08:04:46;;;;;;;7.88;1.95;;;17.50;60.40;;;;;;10602557;27;20341;-47
2022/01/28 08:09:46;;;;;;;14.80;2.25;;;17.60;60.20;;;;;;10584633;27;20116;-49
2022/01/28 08:14:47;;;;;;;19.25;2.17;;;17.70;60.10;;;;;;10584113;27;20425;-48
2022/01/28 08:19:48;;;;;;;9.80;2.20;;;17.60;60.60;;;;;;10585888;27;20094;-45
2022/01/28 08:24:49;;;;;;;14.82;2.58;;;17.50;60.90;;;;;;10600549;27;20059;-46
2022/01/28 08:29:49;;;;;;;13.85;1.80;;;17.70;60.80;;;;;;10594066;27;20110;-47
2022/01/28 08:34:50;;;;;;;15.02;3.10;;;17.80;60.80;;;;;;10590581;28;20095;-47
2022/01/28 08:39:51;;;;;;;10.52;2.22;;;17.80;61.10;;;;;;10579646;28;20028;-47
2022/01/28 08:44:52;;;;;;;8.57;2.20;;;17.70;61.70;;;;;;10592929;28;20024;-47
2022/01/28 08:49:53;;;;;;;12.23;2.10;;;17.70;62.00;;;;;;10601229;28;20496;-46
2022/01/28 08:54:53;;;;;;;15.40;2.00;;;17.60;61.30;;;;;;10588415;28;20368;-47
2022/01/28 08:59:54;;;;;;;18.67;3.40;;;17.50;61.00;;;;;;10621073;28;20436;-45
2022/01/28 09:04:55;;;;;;;22.50;3.03;;;17.40;60.80;;;;;;10583959;28;20426;-46
2022/01/28 09:10:02;;;;;;;15.95;3.05;;;17.40;61.00;;;;;;10583198;28;20106;-47
2022/01/28 09:15:04;;;;;;;23.75;3.78;;;17.30;61.20;;;;;;10578430;28;20020;-44
2022/01/28 09:20:06;;;;;;;12.32;2.75;;;17.40;61.30;;;;;;10582201;28;20039;-46
2022/01/28 09:25:08;;;;;;;19.52;2.88;;;17.40;61.60;;;;;;10605329;27;20469;-45
2022/01/28 09:30:09;;;;;;;26.50;3.38;;;17.40;62.40;;;;;;10582544;27;20480;-45
2022/01/28 09:35:10;;;;;;;10.85;2.67;;;17.40;62.70;;;;;;10597644;27;20370;-48
2022/01/28 09:40:12;;;;;;;12.07;2.65;;;17.30;61.90;;;;;;10577626;27;20043;-45
2022/01/28 09:45:20;;;;;;;13.27;2.50;;;17.30;62.00;;;;;;10596648;27;20023;-45
2022/01/28 09:50:31;;;;;;;10.13;2.00;;;17.20;62.00;;;;;;10604593;27;20031;-47
2022/01/28 09:55:31;;;;;;;15.30;2.70;;;17.30;61.60;;;;;;10585823;28;20471;-45
2022/01/28 10:00:33;;;;;;;11.70;2.03;;;17.30;61.50;;;;;;10585655;28;20092;-46
2022/01/28 10:05:37;;;;;;;11.70;1.88;;;17.30;61.40;;;;;;10596167;27;20019;-45
2022/01/28 10:11:07;;;;;;;10.38;2.17;;;17.30;61.80;;;;;;10592662;27;20054;-46
2022/01/28 10:16:19;;;;;;;7.32;2.03;;;17.20;61.00;;;;;;10599091;27;20035;-50
2022/01/28 10:21:33;;;;;;;7.40;1.80;;;17.20;60.90;;;;;;10579928;28;20046;-45
2022/01/28 10:26:45;;;;;;;7.40;2.08;;;17.30;61.00;;;;;;10584446;28;20034;-48
2022/01/28 10:31:55;;;;;;;3.55;1.15;;;17.30;60.80;;;;;;10586122;27;20084;-46
2022/01/28 10:37:17;;;;;;;7.57;1.85;;;17.30;60.70;;;;;;10579964;27;20073;-44
2022/01/28 10:42:24;;;;;;;5.55;1.50;;;17.30;61.00;;;;;;10602958;27;20042;-46
2022/01/28 10:47:35;;;;;;;5.53;1.27;;;17.20;61.10;;;;;;10626339;27;20035;-49
2022/01/28 10:52:36;;;;;;;5.70;1.65;;;17.20;61.30;;;;;;10597497;27;20039;-46
2022/01/28 10:57:37;;;;;;;3.45;1.35;;;17.30;61.30;;;;;;10581237;27;20114;-49
2022/01/28 11:02:38;;;;;;;7.90;1.95;;;17.20;61.20;;;;;;10598474;27;20041;-47
2022/01/28 11:07:39;;;;;;;3.33;1.10;;;17.30;61.30;;;;;;10582320;27;20096;-44
2022/01/28 11:12:40;;;;;;;11.32;1.90;;;17.30;61.00;;;;;;10589433;27;20065;-43
2022/01/28 11:17:41;;;;;;;11.88;1.80;;;17.30;60.70;;;;;;10565333;27;20118;-43
2022/01/28 11:23:14;;;;;;;5.60;1.63;;;17.30;60.70;;;;;;10602515;27;20551;-46
2022/01/28 11:28:15;;;;;;;6.68;1.60;;;17.30;60.40;;;;;;10602005;27;20054;-45
2022/01/28 11:33:17;;;;;;;10.00;1.80;;;17.30;60.40;;;;;;10589253;27;20023;-42
2022/01/28 11:38:27;;;;;;;7.18;2.13;;;17.30;61.60;;;;;;10598739;27;20028;-43
2022/01/28 11:43:31;;;;;;;7.13;1.98;;;17.20;60.70;;;;;;10592582;27;20130;-47
2022/01/28 11:48:57;;;;;;;11.95;2.20;;;17.20;61.30;;;;;;10585991;27;20439;-48
2022/01/28 11:54:05;;;;;;;7.47;2.00;;;17.20;61.90;;;;;;10608480;27;20377;-45
2022/01/28 11:59:09;;;;;;;9.48;2.03;;;17.30;61.70;;;;;;10617427;27;20031;-46
2022/01/28 12:04:29;;;;;;;7.95;1.40;;;17.20;62.00;;;;;;10593891;27;20038;-43
2022/01/28 12:09:35;;;;;;;;;;;17.20;62.20;;;;;;10606067;27;20023;-44
2022/01/28 12:15:04;;;;;;;11.20;2.78;;;17.20;62.30;;;;;;10579174;27;19912;-44
2022/01/28 12:20:22;;;;;;;9.00;2.37;;;17.30;62.60;;;;;;10590172;27;20456;-44
2022/01/28 12:25:35;;;;;;;7.53;2.80;;;17.30;63.50;;;;;;10620593;27;20031;-46
2022/01/28 12:30:36;;;;;;;8.07;2.50;;;17.20;63.70;;;;;;10582555;28;20118;-45
2022/01/28 12:35:42;;;;;;;16.25;3.15;;;17.20;66.30;;;;;;10596884;27;20107;-44
2022/01/28 12:40:51;;;;;;;11.77;2.65;;;17.20;64.50;;;;;;10593443;28;20035;-45
2022/01/28 12:46:03;;;;;;;11.13;2.55;;;17.10;64.50;;;;;;10596398;28;20019;-45
2022/01/28 12:51:04;;;;;;;9.70;2.45;;;17.20;64.40;;;;;;10586387;28;20031;-48
2022/01/28 12:56:06;;;;;;;15.85;3.90;;;17.30;63.80;;;;;;10608259;27;20107;-47
2022/01/28 13:01:10;;;;;;;18.50;3.08;;;17.30;63.50;;;;;;10609896;27;20118;-45
2022/01/28 13:06:39;;;;;;;11.20;2.20;;;17.30;63.80;;;;;;10617431;27;20102;-46
2022/01/28 13:11:55;;;;;;;10.50;1.63;;;17.30;63.70;;;;;;10597032;27;20146;-49
2022/01/28 13:16:56;;;;;;;14.63;2.50;;;17.40;63.40;;;;;;10596721;27;20102;-48
2022/01/28 13:21:57;;;;;;;12.50;2.08;;;17.40;63.50;;;;;;10592714;27;20382;-47
2022/01/28 13:27:04;;;;;;;8.07;2.53;;;17.40;63.60;;;;;;10578320;27;20020;-45
2022/01/28 13:32:08;;;;;;;15.25;2.13;;;17.40;63.80;;;;;;10594398;27;20042;-46
2022/01/28 13:37:09;;;;;;;11.13;3.25;;;17.30;63.90;;;;;;10598245;27;20042;-48
2022/01/28 13:42:13;;;;;;;13.38;2.63;;;17.20;64.00;;;;;;10626213;27;20447;-45
2022/01/28 13:47:14;;;;;;;15.10;3.30;;;17.20;64.10;;;;;;10602726;27;20024;-43
2022/01/28 13:52:27;;;;;;;9.23;2.40;;;17.20;64.30;;;;;;10601025;27;20464;-44
2022/01/28 13:57:31;;;;;;;9.98;2.10;;;17.10;64.40;;;;;;10628308;27;20035;-43
2022/01/28 14:02:40;;;;;;;10.05;2.47;;;17.10;64.50;;;;;;10610668;27;20038;-45
2022/01/28 14:07:53;;;;;;;13.47;3.50;;;17.10;64.70;;;;;;10591080;27;20056;-47
2022/01/28 14:12:56;;;;;;;15.10;2.25;;;17.10;64.90;;;;;;10565035;28;20031;-43
2022/01/28 14:18:01;;;;;;;13.27;2.25;;;17.20;65.40;;;;;;10584323;28;20039;-46
2022/01/28 14:23:02;;;;;;;18.63;2.95;;;17.20;65.60;;;;;;10595599;27;20043;-47
2022/01/28 14:33:19;;;;;;;15.13;3.20;;;17.10;64.70;;;;;;10596349;27;20474;-45
2022/01/28 14:38:20;;;;;;;12.95;3.08;;;17.70;71.80;;;;;;10584561;28;20036;-46
2022/01/28 14:43:21;;;;;;;16.27;3.15;;;18.00;68.30;;;;;;10608736;27;20023;-45
2022/01/28 14:48:22;;;;;;;30.20;4.50;;;17.80;68.20;;;;;;10605025;27;20115;-44
2022/01/28 14:53:23;;;;;;;20.05;3.58;;;17.70;68.90;;;;;;10601881;27;20114;-47
2022/01/28 14:58:24;;;;;;;17.15;3.53;;;17.50;69.20;;;;;;10583458;28;20039;-46
2022/01/28 15:03:24;;;;;;;19.15;3.42;;;17.40;69.50;;;;;;10592669;27;20510;-45
2022/01/28 15:08:27;;;;;;;20.80;3.60;;;17.20;69.70;;;;;;10579657;27;20023;-46
2022/01/28 15:13:28;;;;;;;21.80;3.17;;;17.10;69.90;;;;;;10578645;27;20015;-48
2022/01/28 15:18:29;;;;;;;21.45;3.55;;;17.10;69.20;;;;;;10596395;27;20467;-48
2022/01/28 15:23:31;;;;;;;18.38;4.00;;;17.20;69.10;;;;;;10606883;27;20039;-45
2022/01/28 15:28:37;;;;;;;17.17;3.10;;;17.30;69.00;;;;;;10592994;27;20023;-47
2022/01/28 15:38:57;;;;;;;26.20;3.85;;;17.40;68.20;;;;;;10583329;27;20467;-46
2022/01/28 15:43:58;;;;;;;31.95;4.68;;;17.40;67.90;;;;;;10588816;27;20027;-48
2022/01/28 15:48:59;;;;;;;18.73;3.47;;;17.30;67.80;;;;;;10602157;27;20388;-50
2022/01/28 15:54:01;;;;;;;19.55;3.05;;;17.20;68.40;;;;;;10581025;28;20352;-45
2022/01/28 15:59:02;;;;;;;23.48;4.75;;;17.20;68.60;;;;;;10564308;27;20031;-46
2022/01/28 16:04:03;;;;;;;18.83;3.38;;;17.20;68.90;;;;;;10594459;27;20027;-47
2022/01/28 16:09:07;;;;;;;15.63;3.47;;;17.20;69.00;;;;;;10569985;27;20030;-43
2022/01/28 16:19:14;;;;;;;13.88;3.30;;;17.40;68.80;;;;;;10583061;27;20526;-46
2022/01/28 16:24:15;;;;;;;15.88;3.20;;;17.30;68.50;;;;;;10599366;27;20032;-47
2022/01/28 16:29:16;;;;;;;19.27;3.65;;;17.40;68.70;;;;;;10592912;27;20015;-47
2022/01/28 16:34:20;;;;;;;27.08;3.50;;;17.40;68.70;;;;;;10591768;27;20109;-44
2022/01/28 16:39:21;;;;;;;18.02;3.80;;;17.30;68.60;;;;;;10580248;28;20118;-44
2022/01/28 16:44:24;;;;;;;12.48;3.53;;;17.20;68.50;;;;;;10579743;28;20027;-44
2022/01/28 16:49:24;;;;;;;25.88;6.32;;;17.40;67.90;;;;;;10573926;28;20034;-44
2022/01/28 16:54:25;;;;;;;19.33;4.07;;;17.60;68.30;;;;;;10610416;28;20551;-46
2022/01/28 16:59:26;;;;;;;21.80;4.55;;;17.40;67.30;;;;;;10582133;28;20036;-44
2022/01/28 17:04:26;;;;;;;18.80;4.20;;;17.40;66.30;;;;;;10581799;28;20153;-47
2022/01/28 17:09:39;;;;;;;20.75;5.13;;;17.60;65.90;;;;;;10580150;28;20023;-46
2022/01/28 17:14:41;;;;;;;21.63;4.13;;;17.80;66.10;;;;;;10602158;28;20058;-46
2022/01/28 17:19:41;;;;;;;38.67;5.72;;;18.00;65.30;;;;;;10603174;28;20181;-46
2022/01/28 17:24:42;;;;;;;20.52;4.13;;;18.00;67.90;;;;;;10578924;28;20165;-48
2022/01/28 17:29:47;;;;;;;21.58;4.47;;;18.00;67.60;;;;;;10611463;28;20035;-44
2022/01/28 17:34:47;;;;;;;21.05;5.55;;;18.00;67.20;;;;;;10590360;28;20108;-46
2022/01/28 17:39:48;;;;;;;28.40;4.72;;;18.00;67.70;;;;;;10580211;28;20092;-44
2022/01/28 17:44:49;;;;;;;16.60;4.35;;;17.90;67.20;;;;;;10586512;28;20028;-43
2022/01/28 17:49:49;;;;;;;17.50;3.47;;;17.70;67.10;;;;;;10595068;27;20852;-44
2022/01/28 17:54:51;;;;;;;21.27;3.67;;;17.70;67.10;;;;;;10588678;27;20872;-43
2022/01/28 17:59:53;;;;;;;21.63;3.55;;;17.50;67.20;;;;;;10581428;27;20485;-43
2022/01/28 18:04:54;;;;;;;14.02;3.83;;;17.50;67.30;;;;;;10599901;27;20522;-44
2022/01/28 18:09:56;;;;;;;17.45;3.50;;;17.50;67.10;;;;;;10608268;27;20102;-43
2022/01/28 18:14:57;;;;;;;26.95;4.13;;;17.40;67.00;;;;;;10605548;27;20024;-44
2022/01/28 18:19:57;;;;;;;17.45;3.45;;;17.40;67.00;;;;;;10584469;27;20031;-46
2022/01/28 18:24:58;;;;;;;12.02;3.28;;;17.40;66.50;;;;;;10625933;27;20168;-48
2022/01/28 18:29:59;;;;;;;14.32;3.35;;;17.50;66.20;;;;;;10583201;27;20106;-49
2022/01/28 18:34:59;;;;;;;12.13;3.22;;;17.50;65.70;;;;;;10585753;27;20464;-45
2022/01/28 18:40:01;;;;;;;13.50;3.53;;;17.50;65.60;;;;;;10606781;27;20364;-46
2022/01/28 18:45:04;;;;;;;14.77;3.70;;;17.50;65.50;;;;;;10583139;27;20626;-45
2022/01/28 18:50:08;;;;;;;11.07;4.03;;;17.50;65.10;;;;;;10606860;27;20032;-44
2022/01/28 18:55:09;;;;;;;13.85;3.05;;;17.50;65.00;;;;;;10578592;27;20031;-43
2022/01/28 19:00:10;;;;;;;4.85;2.20;;;17.60;64.80;;;;;;10597036;27;20035;-46
2022/01/28 19:05:12;;;;;;;9.18;2.22;;;17.50;64.50;;;;;;10595412;27;20098;-48
2022/01/28 19:10:17;;;;;;;9.75;2.60;;;17.50;64.50;;;;;;10581922;27;20023;-45
2022/01/28 19:15:20;;;;;;;7.97;2.63;;;17.60;64.30;;;;;;10582047;27;20019;-43
2022/01/28 19:20:21;;;;;;;6.38;2.67;;;17.60;64.80;;;;;;10586418;27;20043;-44
2022/01/28 19:25:22;;;;;;;8.93;2.55;;;17.50;64.50;;;;;;10598394;27;20542;-45
2022/01/28 19:30:22;;;;;;;9.25;3.10;;;17.50;64.20;;;;;;10576263;27;20369;-45
2022/01/28 19:35:23;;;;;;;8.75;2.35;;;17.70;63.80;;;;;;10578895;27;20031;-47
2022/01/28 19:40:24;;;;;;;12.65;3.67;;;17.80;63.50;;;;;;10582338;27;20454;-44
2022/01/28 19:45:26;;;;;;;8.88;3.20;;;17.70;63.60;;;;;;10580342;27;20028;-44
2022/01/28 19:50:29;;;;;;;10.15;2.63;;;17.70;63.80;;;;;;10600138;27;20379;-46
2022/01/28 19:55:29;;;;;;;9.82;3.20;;;17.60;63.80;;;;;;10615283;27;20379;-48
2022/01/28 20:00:30;;;;;;;7.68;3.30;;;17.60;63.70;;;;;;10591450;27;20023;-49
2022/01/28 20:05:31;;;;;;;5.72;2.60;;;17.60;63.80;;;;;;10606547;27;20101;-48
2022/01/28 20:10:31;;;;;;;8.93;2.92;;;17.50;64.10;;;;;;10580735;28;20106;-46
2022/01/28 20:15:32;;;;;;;7.20;2.83;;;17.50;63.90;;;;;;10587630;27;20588;-44
2022/01/28 20:20:33;;;;;;;8.85;3.40;;;17.60;63.60;;;;;;10594314;27;20048;-46
2022/01/28 20:25:35;;;;;;;9.73;2.95;;;17.70;63.30;;;;;;10591256;27;20043;-45
2022/01/28 20:30:35;;;;;;;8.98;2.72;;;17.60;63.20;;;;;;10605927;27;20435;-43
2022/01/28 20:35:37;;;;;;;6.35;2.10;;;17.70;63.00;;;;;;10581906;28;20033;-44
2022/01/28 20:40:38;;;;;;;7.10;2.40;;;17.70;62.90;;;;;;10575842;28;20029;-48
2022/01/28 20:45:39;;;;;;;5.90;2.50;;;17.70;62.90;;;;;;10587183;28;20027;-47
2022/01/28 20:50:40;;;;;;;5.80;2.17;;;17.70;62.90;;;;;;10586736;28;20499;-46
2022/01/28 20:55:40;;;;;;;4.70;2.67;;;17.70;62.80;;;;;;10585742;28;20376;-43
2022/01/28 21:00:42;;;;;;;7.07;2.95;;;17.70;62.80;;;;;;10580181;28;20042;-43
2022/01/28 21:05:42;;;;;;;4.47;2.70;;;17.60;62.90;;;;;;10581436;28;20030;-44
2022/01/28 21:10:43;;;;;;;3.83;2.30;;;17.70;62.90;;;;;;10575245;28;20431;-43
2022/01/28 21:15:45;;;;;;;5.25;2.65;;;17.70;62.80;;;;;;10616390;27;20114;-43
2022/01/28 21:20:46;;;;;;;5.50;2.60;;;17.70;62.70;;;;;;10614043;27;20062;-46
2022/01/28 21:25:47;;;;;;;4.50;2.53;;;17.70;62.50;;;;;;10587350;28;20031;-44
2022/01/28 21:30:49;;;;;;;7.13;2.45;;;17.70;63.10;;;;;;10590105;27;20459;-46
2022/01/28 21:35:50;;;;;;;4.55;2.58;;;17.70;62.40;;;;;;10611503;27;20035;-49
2022/01/28 21:40:53;;;;;;;4.25;2.20;;;17.70;62.30;;;;;;10621878;27;20478;-45
2022/01/28 21:45:54;;;;;;;4.53;2.58;;;17.70;62.20;;;;;;10598494;27;20040;-45
2022/01/28 21:50:55;;;;;;;4.90;2.78;;;17.80;62.10;;;;;;10586613;27;20031;-43
2022/01/28 21:55:56;;;;;;;4.85;3.00;;;17.80;62.00;;;;;;10580677;28;20476;-46
2022/01/28 22:00:57;;;;;;;5.47;3.28;;;17.80;62.00;;;;;;10585893;27;20054;-45
2022/01/28 22:05:58;;;;;;;6.80;2.25;;;17.70;62.00;;;;;;10586077;27;20046;-44
2022/01/28 22:10:59;;;;;;;5.47;2.53;;;17.70;62.00;;;;;;10611891;27;20039;-44
2022/01/28 22:16:01;;;;;;;4.22;2.33;;;17.80;62.00;;;;;;10583418;27;20058;-46
2022/01/28 22:21:02;;;;;;;5.22;2.50;;;17.70;61.90;;;;;;10591217;27;20139;-49
2022/01/28 22:26:03;;;;;;;4.68;2.40;;;17.80;61.90;;;;;;10584338;27;20115;-45
2022/01/28 22:31:04;;;;;;;5.82;2.60;;;17.80;62.00;;;;;;10596174;27;20029;-47
2022/01/28 22:36:04;;;;;;;4.22;2.53;;;17.70;61.90;;;;;;10589722;27;20028;-44
2022/01/28 22:41:05;;;;;;;5.45;2.40;;;17.70;61.80;;;;;;10579761;27;20028;-46
2022/01/28 22:46:06;;;;;;;5.28;2.40;;;17.70;61.70;;;;;;10584270;27;20027;-45
2022/01/28 22:51:07;;;;;;;3.40;2.05;;;17.70;61.70;;;;;;10584167;27;20106;-45
2022/01/28 22:56:07;;;;;;;3.70;2.15;;;17.80;61.70;;;;;;10583880;27;20084;-44
2022/01/28 23:01:08;;;;;;;3.92;2.42;;;17.80;61.60;;;;;;10584075;28;20024;-44
2022/01/28 23:06:10;;;;;;;4.25;2.28;;;17.90;62.00;;;;;;10603428;27;20547;-48
2022/01/28 23:11:10;;;;;;;6.10;2.90;;;17.90;61.40;;;;;;10606963;27;20038;-45
2022/01/28 23:16:12;;;;;;;5.78;2.30;;;17.80;61.30;;;;;;10610750;27;20372;-45
2022/01/28 23:21:12;;;;;;;3.92;2.10;;;17.90;61.20;;;;;;10593257;27;20502;-44
2022/01/28 23:26:17;;;;;;;3.85;2.45;;;17.90;61.20;;;;;;10623867;27;20038;-47
2022/01/28 23:31:18;;;;;;;3.97;2.00;;;17.90;61.00;;;;;;10608727;27;20412;-45
2022/01/28 23:36:19;;;;;;;3.65;2.22;;;17.90;61.10;;;;;;10609329;27;20038;-44
2022/01/28 23:41:20;;;;;;;4.72;2.38;;;17.80;61.30;;;;;;10592057;27;20027;-44
2022/01/28 23:46:21;;;;;;;4.35;2.90;;;17.90;61.30;;;;;;10584038;27;20027;-48
2022/01/28 23:51:22;;;;;;;3.22;2.05;;;17.80;61.30;;;;;;10581488;27;20551;-46
2022/01/28 23:56:22;;;;;;;4.05;2.38;;;17.80;61.20;;;;;;10604464;27;20035;-49
